sensor_id;sensor_type;location;lat;lon;timestamp;pressure;altitude;pressure_sealevel;temperature;humidity
51067;BME280;37112;45.892;-123.962;2023-12-22T00:00:46;101481.04;;;9.47;100.00
51067;BME280;37112;45.892;-123.962;2023-12-22T00:03:24;101480.20;;;9.43;100.00
51067;BME280;37112;45.892;-123.962;2023-12-22T00:05:59;101481.02;;;9.41;100.00
51067;BME280;37112;45.892;-123.962;2023-12-22T00:08:27;101481.28;;;9.39;100.00
51067;BME280;37112;45.892;-123.962;2023-12-22T00:11:01;101481.08;;;9.40;100.00
51067;BME280;37112;45.892;-123.962;2023-12-22T00:13:35;101482.07;;;9.38;100.00
51067;BME280;37112;45.892;-123.962;2023-12-22T00:15:58;101480.09;;;9.38;100.00
51067;BME280;37112;45.892;-123.962;2023-12-22T00:18:32;101479.23;;;9.38;100.00
51067;BME280;37112;45.892;-123.962;2023-12-22T00:20:59;101475.42;;;9.39;100.00
51067;BME280;37112;45.892;-123.962;2023-12-22T00:23:36;101477.52;;;9.40;100.00
51067;BME280;37112;45.892;-123.962;2023-12-22T00:26:03;101480.75;;;9.39;100.00
51067;BME280;37112;45.892;-123.962;2023-12-22T00:28:29;101481.60;;;9.36;100.00
51067;BME280;37112;45.892;-123.962;2023-12-22T00:30:52;101482.06;;;9.34;100.00
51067;BME280;37112;45.892;-123.962;2023-12-22T00:33:27;101486.87;;;9.34;100.00
51067;BME280;37112;45.892;-123.962;2023-12-22T00:35:53;101485.70;;;9.32;100.00
51067;BME280;37112;45.892;-123.962;2023-12-22T00:38:27;101489.08;;;9.32;100.00
51067;BME280;37112;45.892;-123.962;2023-12-22T00:40:53;101491.42;;;9.31;100.00
51067;BME280;37112;45.892;-123.962;2023-12-22T00:43:27;101487.25;;;9.30;100.00
51067;BME280;37112;45.892;-123.962;2023-12-22T00:46:02;101486.60;;;9.29;100.00
51067;BME280;37112;45.892;-123.962;2023-12-22T00:48:37;101487.20;;;9.28;100.00
51067;BME280;37112;45.892;-123.962;2023-12-22T00:51:11;101481.36;;;9.27;100.00
51067;BME280;37112;45.892;-123.962;2023-12-22T00:53:39;101478.42;;;9.29;100.00
51067;BME280;37112;45.892;-123.962;2023-12-22T00:56:13;101477.56;;;9.32;100.00
51067;BME280;37112;45.892;-123.962;2023-12-22T00:58:48;101476.23;;;9.34;100.00
51067;BME280;37112;45.892;-123.962;2023-12-22T01:01:33;101476.95;;;9.33;100.00
51067;BME280;37112;45.892;-123.962;2023-12-22T01:04:07;101477.90;;;9.36;100.00
51067;BME280;37112;45.892;-123.962;2023-12-22T01:06:42;101481.51;;;9.38;100.00
51067;BME280;37112;45.892;-123.962;2023-12-22T01:09:05;101481.02;;;9.41;100.00
51067;BME280;37112;45.892;-123.962;2023-12-22T01:11:32;101479.74;;;9.42;100.00
51067;BME280;37112;45.892;-123.962;2023-12-22T01:13:59;101480.44;;;9.42;100.00
51067;BME280;37112;45.892;-123.962;2023-12-22T01:16:33;101476.56;;;9.41;100.00
51067;BME280;37112;45.892;-123.962;2023-12-22T01:19:06;101476.92;;;9.41;100.00
51067;BME280;37112;45.892;-123.962;2023-12-22T01:21:41;101476.23;;;9.40;100.00
51067;BME280;37112;45.892;-123.962;2023-12-22T01:24:16;101472.16;;;9.40;100.00
51067;BME280;37112;45.892;-123.962;2023-12-22T01:26:51;101469.14;;;9.41;100.00
51067;BME280;37112;45.892;-123.962;2023-12-22T01:29:25;101468.30;;;9.40;100.00
51067;BME280;37112;45.892;-123.962;2023-12-22T01:31:52;101469.02;;;9.40;100.00
51067;BME280;37112;45.892;-123.962;2023-12-22T01:34:14;101469.70;;;9.40;100.00
51067;BME280;37112;45.892;-123.962;2023-12-22T01:36:48;101470.70;;;9.42;100.00
51067;BME280;37112;45.892;-123.962;2023-12-22T01:39:11;101469.48;;;9.42;100.00
51067;BME280;37112;45.892;-123.962;2023-12-22T01:41:34;101470.01;;;9.41;100.00
51067;BME280;37112;45.892;-123.962;2023-12-22T01:43:57;101471.35;;;9.39;100.00
51067;BME280;37112;45.892;-123.962;2023-12-22T01:46:32;101469.35;;;9.40;100.00
51067;BME280;37112;45.892;-123.962;2023-12-22T01:49:05;101464.83;;;9.42;100.00
51067;BME280;37112;45.892;-123.962;2023-12-22T01:51:36;101464.56;;;9.44;100.00
51067;BME280;37112;45.892;-123.962;2023-12-22T01:54:12;101467.10;;;9.46;100.00
51067;BME280;37112;45.892;-123.962;2023-12-22T01:56:41;101469.81;;;9.45;100.00
51067;BME280;37112;45.892;-123.962;2023-12-22T01:59:16;101470.98;;;9.43;100.00
51067;BME280;37112;45.892;-123.962;2023-12-22T02:01:44;101474.27;;;9.41;100.00
51067;BME280;37112;45.892;-123.962;2023-12-22T02:04:18;101473.83;;;9.39;100.00
51067;BME280;37112;45.892;-123.962;2023-12-22T02:06:54;101473.94;;;9.37;100.00
51067;BME280;37112;45.892;-123.962;2023-12-22T02:09:26;101472.65;;;9.35;100.00
51067;BME280;37112;45.892;-123.962;2023-12-22T02:12:00;101475.00;;;9.34;100.00
51067;BME280;37112;45.892;-123.962;2023-12-22T02:14:43;101474.35;;;9.32;100.00
51067;BME280;37112;45.892;-123.962;2023-12-22T02:17:14;101473.04;;;9.31;100.00
51067;BME280;37112;45.892;-123.962;2023-12-22T02:19:46;101473.62;;;9.29;100.00
51067;BME280;37112;45.892;-123.962;2023-12-22T02:22:20;101464.60;;;9.29;100.00
51067;BME280;37112;45.892;-123.962;2023-12-22T02:24:53;101471.87;;;9.29;100.00
51067;BME280;37112;45.892;-123.962;2023-12-22T02:27:33;101468.61;;;9.30;100.00
51067;BME280;37112;45.892;-123.962;2023-12-22T02:30:10;101470.11;;;9.32;100.00
51067;BME280;37112;45.892;-123.962;2023-12-22T02:32:47;101463.35;;;9.33;100.00
51067;BME280;37112;45.892;-123.962;2023-12-22T02:35:23;101464.41;;;9.32;100.00
51067;BME280;37112;45.892;-123.962;2023-12-22T02:37:59;101463.23;;;9.32;100.00
51067;BME280;37112;45.892;-123.962;2023-12-22T02:40:34;101463.13;;;9.33;100.00
51067;BME280;37112;45.892;-123.962;2023-12-22T02:43:08;101458.15;;;9.34;100.00
51067;BME280;37112;45.892;-123.962;2023-12-22T02:45:36;101450.09;;;9.36;100.00
51067;BME280;37112;45.892;-123.962;2023-12-22T02:47:58;101446.92;;;9.38;100.00
51067;BME280;37112;45.892;-123.962;2023-12-22T02:50:33;101444.05;;;9.39;100.00
51067;BME280;37112;45.892;-123.962;2023-12-22T02:53:07;101444.94;;;9.39;100.00
51067;BME280;37112;45.892;-123.962;2023-12-22T02:55:41;101442.30;;;9.39;100.00
51067;BME280;37112;45.892;-123.962;2023-12-22T02:58:15;101438.83;;;9.37;100.00
51067;BME280;37112;45.892;-123.962;2023-12-22T03:00:49;101436.26;;;9.36;100.00
51067;BME280;37112;45.892;-123.962;2023-12-22T03:03:16;101437.70;;;9.36;100.00
51067;BME280;37112;45.892;-123.962;2023-12-22T03:05:43;101443.39;;;9.38;100.00
51067;BME280;37112;45.892;-123.962;2023-12-22T03:08:18;101446.98;;;9.37;100.00
51067;BME280;37112;45.892;-123.962;2023-12-22T03:10:45;101441.99;;;9.35;100.00
51067;BME280;37112;45.892;-123.962;2023-12-22T03:13:12;101448.08;;;9.33;100.00
51067;BME280;37112;45.892;-123.962;2023-12-22T03:15:45;101453.91;;;9.34;100.00
51067;BME280;37112;45.892;-123.962;2023-12-22T03:18:21;101455.17;;;9.33;100.00
51067;BME280;37112;45.892;-123.962;2023-12-22T03:20:55;101458.19;;;9.33;100.00
51067;BME280;37112;45.892;-123.962;2023-12-22T03:23:22;101459.27;;;9.33;100.00
51067;BME280;37112;45.892;-123.962;2023-12-22T03:25:57;101457.05;;;9.31;100.00
51067;BME280;37112;45.892;-123.962;2023-12-22T03:28:32;101460.33;;;9.30;100.00
51067;BME280;37112;45.892;-123.962;2023-12-22T03:30:54;101463.21;;;9.29;100.00
51067;BME280;37112;45.892;-123.962;2023-12-22T03:33:29;101461.42;;;9.29;100.00
51067;BME280;37112;45.892;-123.962;2023-12-22T03:35:56;101459.69;;;9.28;100.00
51067;BME280;37112;45.892;-123.962;2023-12-22T03:38:25;101458.90;;;9.26;100.00
51067;BME280;37112;45.892;-123.962;2023-12-22T03:40:59;101462.73;;;9.24;100.00
51067;BME280;37112;45.892;-123.962;2023-12-22T03:43:25;101463.14;;;9.23;100.00
51067;BME280;37112;45.892;-123.962;2023-12-22T03:45:52;101462.76;;;9.24;100.00
51067;BME280;37112;45.892;-123.962;2023-12-22T03:48:20;101459.59;;;9.23;100.00
51067;BME280;37112;45.892;-123.962;2023-12-22T03:50:43;101457.77;;;9.24;100.00
51067;BME280;37112;45.892;-123.962;2023-12-22T03:53:09;101459.41;;;9.27;100.00
51067;BME280;37112;45.892;-123.962;2023-12-22T03:55:43;101453.45;;;9.29;100.00
51067;BME280;37112;45.892;-123.962;2023-12-22T03:58:05;101453.74;;;9.30;100.00
51067;BME280;37112;45.892;-123.962;2023-12-22T04:00:40;101449.98;;;9.31;100.00
51067;BME280;37112;45.892;-123.962;2023-12-22T04:02:59;101448.27;;;9.30;100.00
51067;BME280;37112;45.892;-123.962;2023-12-22T04:05:33;101455.22;;;9.29;100.00
51067;BME280;37112;45.892;-123.962;2023-12-22T04:08:07;101456.98;;;9.29;100.00
51067;BME280;37112;45.892;-123.962;2023-12-22T04:10:42;101451.96;;;9.27;100.00
51067;BME280;37112;45.892;-123.962;2023-12-22T04:13:16;101452.50;;;9.23;100.00
51067;BME280;37112;45.892;-123.962;2023-12-22T04:15:51;101452.84;;;9.20;100.00
51067;BME280;37112;45.892;-123.962;2023-12-22T04:18:25;101451.43;;;9.20;100.00
51067;BME280;37112;45.892;-123.962;2023-12-22T04:20:59;101458.49;;;9.20;100.00
51067;BME280;37112;45.892;-123.962;2023-12-22T04:23:34;101452.55;;;9.18;100.00
51067;BME280;37112;45.892;-123.962;2023-12-22T04:26:09;101451.86;;;9.18;100.00
51067;BME280;37112;45.892;-123.962;2023-12-22T04:28:36;101451.86;;;9.18;100.00
51067;BME280;37112;45.892;-123.962;2023-12-22T04:31:10;101446.49;;;9.19;100.00
51067;BME280;37112;45.892;-123.962;2023-12-22T04:33:45;101444.19;;;9.19;100.00
51067;BME280;37112;45.892;-123.962;2023-12-22T04:36:05;101441.21;;;9.18;100.00
51067;BME280;37112;45.892;-123.962;2023-12-22T04:38:39;101437.49;;;9.18;100.00
51067;BME280;37112;45.892;-123.962;2023-12-22T04:41:07;101435.98;;;9.16;100.00
51067;BME280;37112;45.892;-123.962;2023-12-22T04:43:40;101434.81;;;9.15;100.00
51067;BME280;37112;45.892;-123.962;2023-12-22T04:46:14;101435.65;;;9.16;100.00
51067;BME280;37112;45.892;-123.962;2023-12-22T04:48:48;101432.90;;;9.18;100.00
51067;BME280;37112;45.892;-123.962;2023-12-22T04:51:23;101429.48;;;9.15;100.00
51067;BME280;37112;45.892;-123.962;2023-12-22T04:53:50;101426.55;;;9.14;100.00
51067;BME280;37112;45.892;-123.962;2023-12-22T04:56:24;101422.82;;;9.14;100.00
51067;BME280;37112;45.892;-123.962;2023-12-22T04:58:58;101420.17;;;9.14;100.00
51067;BME280;37112;45.892;-123.962;2023-12-22T05:01:21;101421.02;;;9.14;100.00
51067;BME280;37112;45.892;-123.962;2023-12-22T05:03:51;101415.13;;;9.12;100.00
51067;BME280;37112;45.892;-123.962;2023-12-22T05:06:19;101414.66;;;9.11;100.00
51067;BME280;37112;45.892;-123.962;2023-12-22T05:08:53;101413.13;;;9.09;100.00
51067;BME280;37112;45.892;-123.962;2023-12-22T05:11:25;101412.07;;;9.09;100.00
51067;BME280;37112;45.892;-123.962;2023-12-22T05:13:54;101414.00;;;9.09;100.00
51067;BME280;37112;45.892;-123.962;2023-12-22T05:16:31;101412.19;;;9.07;100.00
51067;BME280;37112;45.892;-123.962;2023-12-22T05:19:05;101411.12;;;9.07;100.00
51067;BME280;37112;45.892;-123.962;2023-12-22T05:21:31;101406.90;;;9.07;100.00
51067;BME280;37112;45.892;-123.962;2023-12-22T05:23:58;101407.70;;;9.05;100.00
51067;BME280;37112;45.892;-123.962;2023-12-22T05:26:31;101404.13;;;9.06;100.00
51067;BME280;37112;45.892;-123.962;2023-12-22T05:29:06;101405.27;;;9.07;100.00
51067;BME280;37112;45.892;-123.962;2023-12-22T05:31:41;101406.98;;;9.08;100.00
51067;BME280;37112;45.892;-123.962;2023-12-22T05:34:15;101404.50;;;9.08;100.00
51067;BME280;37112;45.892;-123.962;2023-12-22T05:36:40;101402.39;;;9.08;100.00
51067;BME280;37112;45.892;-123.962;2023-12-22T05:39:16;101398.64;;;9.09;100.00
51067;BME280;37112;45.892;-123.962;2023-12-22T05:41:49;101401.71;;;9.08;100.00
51067;BME280;37112;45.892;-123.962;2023-12-22T05:44:08;101396.77;;;9.04;100.00
51067;BME280;37112;45.892;-123.962;2023-12-22T05:46:41;101395.98;;;9.02;100.00
51067;BME280;37112;45.892;-123.962;2023-12-22T05:49:08;101398.19;;;9.00;100.00
51067;BME280;37112;45.892;-123.962;2023-12-22T05:51:42;101401.77;;;8.99;100.00
51067;BME280;37112;45.892;-123.962;2023-12-22T05:54:09;101397.25;;;8.98;100.00
51067;BME280;37112;45.892;-123.962;2023-12-22T05:56:44;101395.45;;;8.95;100.00
51067;BME280;37112;45.892;-123.962;2023-12-22T05:59:16;101401.59;;;8.96;100.00
51067;BME280;37112;45.892;-123.962;2023-12-22T06:01:44;101399.23;;;8.98;100.00
51067;BME280;37112;45.892;-123.962;2023-12-22T06:04:17;101406.11;;;8.98;100.00
51067;BME280;37112;45.892;-123.962;2023-12-22T06:06:52;101406.75;;;8.96;100.00
51067;BME280;37112;45.892;-123.962;2023-12-22T06:09:17;101404.84;;;8.95;100.00
51067;BME280;37112;45.892;-123.962;2023-12-22T06:11:54;101408.30;;;9.00;100.00
51067;BME280;37112;45.892;-123.962;2023-12-22T06:14:30;101412.87;;;9.08;100.00
51067;BME280;37112;45.892;-123.962;2023-12-22T06:17:04;101415.88;;;9.15;100.00
51067;BME280;37112;45.892;-123.962;2023-12-22T06:19:38;101420.75;;;9.20;100.00
51067;BME280;37112;45.892;-123.962;2023-12-22T06:22:09;101415.27;;;9.24;100.00
51067;BME280;37112;45.892;-123.962;2023-12-22T06:24:43;101419.61;;;9.25;100.00
51067;BME280;37112;45.892;-123.962;2023-12-22T06:27:17;101424.18;;;9.26;100.00
51067;BME280;37112;45.892;-123.962;2023-12-22T06:29:52;101422.15;;;9.28;100.00
51067;BME280;37112;45.892;-123.962;2023-12-22T06:32:27;101423.10;;;9.30;100.00
51067;BME280;37112;45.892;-123.962;2023-12-22T06:35:01;101423.20;;;9.31;100.00
51067;BME280;37112;45.892;-123.962;2023-12-22T06:37:28;101427.34;;;9.33;100.00
51067;BME280;37112;45.892;-123.962;2023-12-22T06:39:50;101431.84;;;9.35;100.00
51067;BME280;37112;45.892;-123.962;2023-12-22T06:42:16;101435.27;;;9.38;100.00
51067;BME280;37112;45.892;-123.962;2023-12-22T06:44:51;101439.43;;;9.39;100.00
51067;BME280;37112;45.892;-123.962;2023-12-22T06:47:19;101438.63;;;9.41;100.00
51067;BME280;37112;45.892;-123.962;2023-12-22T06:49:54;101438.96;;;9.42;100.00
51067;BME280;37112;45.892;-123.962;2023-12-22T06:52:28;101441.98;;;9.42;100.00
51067;BME280;37112;45.892;-123.962;2023-12-22T06:55:03;101436.49;;;9.41;100.00
51067;BME280;37112;45.892;-123.962;2023-12-22T06:57:36;101434.91;;;9.41;100.00
51067;BME280;37112;45.892;-123.962;2023-12-22T07:00:13;101431.75;;;9.41;100.00
51067;BME280;37112;45.892;-123.962;2023-12-22T07:02:47;101433.48;;;9.42;100.00
51067;BME280;37112;45.892;-123.962;2023-12-22T07:05:37;101435.60;;;9.42;100.00
51067;BME280;37112;45.892;-123.962;2023-12-22T07:08:12;101436.11;;;9.42;100.00
51067;BME280;37112;45.892;-123.962;2023-12-22T07:10:49;101430.11;;;9.42;100.00
51067;BME280;37112;45.892;-123.962;2023-12-22T07:13:24;101428.31;;;9.42;100.00
51067;BME280;37112;45.892;-123.962;2023-12-22T07:15:59;101423.12;;;9.43;100.00
51067;BME280;37112;45.892;-123.962;2023-12-22T07:18:34;101425.95;;;9.43;100.00
51067;BME280;37112;45.892;-123.962;2023-12-22T07:21:19;101423.65;;;9.43;100.00
51067;BME280;37112;45.892;-123.962;2023-12-22T07:23:44;101416.12;;;9.45;100.00
51067;BME280;37112;45.892;-123.962;2023-12-22T07:26:07;101408.31;;;9.45;100.00
51067;BME280;37112;45.892;-123.962;2023-12-22T07:28:35;101405.63;;;9.45;100.00
51067;BME280;37112;45.892;-123.962;2023-12-22T07:30:55;101400.11;;;9.46;100.00
51067;BME280;37112;45.892;-123.962;2023-12-22T07:33:23;101401.20;;;9.45;100.00
51067;BME280;37112;45.892;-123.962;2023-12-22T07:35:56;101399.46;;;9.45;100.00
51067;BME280;37112;45.892;-123.962;2023-12-22T07:38:16;101392.19;;;9.45;100.00
51067;BME280;37112;45.892;-123.962;2023-12-22T07:40:46;101387.11;;;9.47;100.00
51067;BME280;37112;45.892;-123.962;2023-12-22T07:43:22;101389.70;;;9.48;100.00
51067;BME280;37112;45.892;-123.962;2023-12-22T07:45:58;101393.86;;;9.50;100.00
51067;BME280;37112;45.892;-123.962;2023-12-22T07:48:33;101392.34;;;9.52;100.00
51067;BME280;37112;45.892;-123.962;2023-12-22T07:51:08;101392.23;;;9.54;100.00
51067;BME280;37112;45.892;-123.962;2023-12-22T07:53:35;101390.02;;;9.56;100.00
51067;BME280;37112;45.892;-123.962;2023-12-22T07:55:59;101394.00;;;9.58;100.00
51067;BME280;37112;45.892;-123.962;2023-12-22T07:58:33;101395.34;;;9.59;100.00
51067;BME280;37112;45.892;-123.962;2023-12-22T08:01:08;101395.45;;;9.60;100.00
51067;BME280;37112;45.892;-123.962;2023-12-22T08:03:43;101398.50;;;9.63;100.00
51067;BME280;37112;45.892;-123.962;2023-12-22T08:06:18;101397.51;;;9.65;100.00
51067;BME280;37112;45.892;-123.962;2023-12-22T08:08:47;101395.54;;;9.65;100.00
51067;BME280;37112;45.892;-123.962;2023-12-22T08:11:21;101390.86;;;9.66;100.00
51067;BME280;37112;45.892;-123.962;2023-12-22T08:13:57;101390.23;;;9.68;100.00
51067;BME280;37112;45.892;-123.962;2023-12-22T08:16:20;101397.91;;;9.70;100.00
51067;BME280;37112;45.892;-123.962;2023-12-22T08:18:48;101392.35;;;9.72;100.00
51067;BME280;37112;45.892;-123.962;2023-12-22T08:21:22;101387.34;;;9.73;100.00
51067;BME280;37112;45.892;-123.962;2023-12-22T08:24:00;101383.52;;;9.74;100.00
51067;BME280;37112;45.892;-123.962;2023-12-22T08:26:28;101385.09;;;9.75;100.00
51067;BME280;37112;45.892;-123.962;2023-12-22T08:28:49;101378.83;;;9.76;100.00
51067;BME280;37112;45.892;-123.962;2023-12-22T08:31:22;101374.17;;;9.77;100.00
51067;BME280;37112;45.892;-123.962;2023-12-22T08:33:57;101369.83;;;9.78;100.00
51067;BME280;37112;45.892;-123.962;2023-12-22T08:36:31;101365.20;;;9.78;100.00
51067;BME280;37112;45.892;-123.962;2023-12-22T08:39:07;101362.07;;;9.77;100.00
51067;BME280;37112;45.892;-123.962;2023-12-22T08:41:37;101353.77;;;9.77;100.00
51067;BME280;37112;45.892;-123.962;2023-12-22T08:44:09;101353.66;;;9.76;100.00
51067;BME280;37112;45.892;-123.962;2023-12-22T08:46:46;101357.73;;;9.76;100.00
51067;BME280;37112;45.892;-123.962;2023-12-22T08:49:19;101355.73;;;9.76;100.00
51067;BME280;37112;45.892;-123.962;2023-12-22T08:51:53;101353.52;;;9.75;100.00
51067;BME280;37112;45.892;-123.962;2023-12-22T08:54:20;101351.55;;;9.75;100.00
51067;BME280;37112;45.892;-123.962;2023-12-22T08:56:55;101348.88;;;9.76;100.00
51067;BME280;37112;45.892;-123.962;2023-12-22T08:59:29;101347.92;;;9.77;100.00
51067;BME280;37112;45.892;-123.962;2023-12-22T09:02:04;101344.54;;;9.77;100.00
51067;BME280;37112;45.892;-123.962;2023-12-22T09:04:38;101341.71;;;9.77;100.00
51067;BME280;37112;45.892;-123.962;2023-12-22T09:07:02;101342.41;;;9.77;100.00
51067;BME280;37112;45.892;-123.962;2023-12-22T09:09:37;101342.60;;;9.77;100.00
51067;BME280;37112;45.892;-123.962;2023-12-22T09:12:12;101335.69;;;9.77;100.00
51067;BME280;37112;45.892;-123.962;2023-12-22T09:14:47;101332.58;;;9.78;100.00
51067;BME280;37112;45.892;-123.962;2023-12-22T09:17:15;101328.30;;;9.79;100.00
51067;BME280;37112;45.892;-123.962;2023-12-22T09:19:49;101320.14;;;9.79;100.00
51067;BME280;37112;45.892;-123.962;2023-12-22T09:22:23;101317.14;;;9.78;100.00
51067;BME280;37112;45.892;-123.962;2023-12-22T09:24:57;101317.67;;;9.78;100.00
51067;BME280;37112;45.892;-123.962;2023-12-22T09:27:32;101315.96;;;9.77;100.00
51067;BME280;37112;45.892;-123.962;2023-12-22T09:30:09;101315.47;;;9.77;100.00
51067;BME280;37112;45.892;-123.962;2023-12-22T09:32:36;101312.73;;;9.75;100.00
51067;BME280;37112;45.892;-123.962;2023-12-22T09:35:03;101315.96;;;9.74;100.00
51067;BME280;37112;45.892;-123.962;2023-12-22T09:37:37;101318.79;;;9.74;100.00
51067;BME280;37112;45.892;-123.962;2023-12-22T09:40:03;101326.22;;;9.75;100.00
51067;BME280;37112;45.892;-123.962;2023-12-22T09:42:40;101319.15;;;9.74;100.00
51067;BME280;37112;45.892;-123.962;2023-12-22T09:45:24;101321.97;;;9.75;100.00
51067;BME280;37112;45.892;-123.962;2023-12-22T09:47:48;101327.97;;;9.75;100.00
51067;BME280;37112;45.892;-123.962;2023-12-22T09:50:15;101323.13;;;9.76;100.00
51067;BME280;37112;45.892;-123.962;2023-12-22T09:55:38;101328.02;;;9.74;100.00
51067;BME280;37112;45.892;-123.962;2023-12-22T09:58:12;101332.48;;;9.74;100.00
51067;BME280;37112;45.892;-123.962;2023-12-22T10:00:47;101335.90;;;9.73;100.00
51067;BME280;37112;45.892;-123.962;2023-12-22T10:03:12;101341.79;;;9.72;100.00
51067;BME280;37112;45.892;-123.962;2023-12-22T10:05:46;101339.52;;;9.71;100.00
51067;BME280;37112;45.892;-123.962;2023-12-22T10:08:20;101336.92;;;9.70;100.00
51067;BME280;37112;45.892;-123.962;2023-12-22T10:10:51;101332.72;;;9.69;100.00
51067;BME280;37112;45.892;-123.962;2023-12-22T10:13:18;101338.30;;;9.68;100.00
51067;BME280;37112;45.892;-123.962;2023-12-22T10:15:46;101339.40;;;9.67;100.00
51067;BME280;37112;45.892;-123.962;2023-12-22T10:18:21;101341.38;;;9.67;100.00
51067;BME280;37112;45.892;-123.962;2023-12-22T10:20:56;101338.23;;;9.66;100.00
51067;BME280;37112;45.892;-123.962;2023-12-22T10:23:31;101345.44;;;9.67;100.00
51067;BME280;37112;45.892;-123.962;2023-12-22T10:26:04;101344.71;;;9.67;100.00
51067;BME280;37112;45.892;-123.962;2023-12-22T10:28:39;101341.16;;;9.67;100.00
51067;BME280;37112;45.892;-123.962;2023-12-22T10:31:15;101336.33;;;9.68;100.00
51067;BME280;37112;45.892;-123.962;2023-12-22T10:33:50;101339.14;;;9.69;100.00
51067;BME280;37112;45.892;-123.962;2023-12-22T10:36:18;101340.96;;;9.68;100.00
51067;BME280;37112;45.892;-123.962;2023-12-22T10:38:52;101328.20;;;9.68;100.00
51067;BME280;37112;45.892;-123.962;2023-12-22T10:41:26;101320.59;;;9.68;100.00
51067;BME280;37112;45.892;-123.962;2023-12-22T10:44:01;101313.56;;;9.67;100.00
51067;BME280;37112;45.892;-123.962;2023-12-22T10:46:36;101314.09;;;9.66;100.00
51067;BME280;37112;45.892;-123.962;2023-12-22T10:49:11;101310.95;;;9.66;100.00
51067;BME280;37112;45.892;-123.962;2023-12-22T10:51:47;101305.98;;;9.65;100.00
51067;BME280;37112;45.892;-123.962;2023-12-22T10:54:22;101303.83;;;9.66;100.00
51067;BME280;37112;45.892;-123.962;2023-12-22T10:57:00;101299.25;;;9.66;100.00
51067;BME280;37112;45.892;-123.962;2023-12-22T10:59:36;101295.52;;;9.66;100.00
51067;BME280;37112;45.892;-123.962;2023-12-22T11:02:23;101289.77;;;9.67;100.00
51067;BME280;37112;45.892;-123.962;2023-12-22T11:05:00;101285.80;;;9.68;100.00
51067;BME280;37112;45.892;-123.962;2023-12-22T11:07:26;101284.50;;;9.69;100.00
51067;BME280;37112;45.892;-123.962;2023-12-22T11:10:05;101281.56;;;9.71;100.00
51067;BME280;37112;45.892;-123.962;2023-12-22T11:12:39;101276.05;;;9.71;100.00
51067;BME280;37112;45.892;-123.962;2023-12-22T11:15:14;101275.36;;;9.71;100.00
51067;BME280;37112;45.892;-123.962;2023-12-22T11:17:52;101273.37;;;9.71;100.00
51067;BME280;37112;45.892;-123.962;2023-12-22T11:20:36;101268.06;;;9.71;100.00
51067;BME280;37112;45.892;-123.962;2023-12-22T11:23:12;101262.94;;;9.71;100.00
51067;BME280;37112;45.892;-123.962;2023-12-22T11:25:50;101259.54;;;9.71;100.00
51067;BME280;37112;45.892;-123.962;2023-12-22T11:28:26;101259.06;;;9.70;100.00
51067;BME280;37112;45.892;-123.962;2023-12-22T11:30:55;101261.38;;;9.70;100.00
51067;BME280;37112;45.892;-123.962;2023-12-22T11:33:23;101255.85;;;9.71;100.00
51067;BME280;37112;45.892;-123.962;2023-12-22T11:36:01;101249.67;;;9.70;100.00
51067;BME280;37112;45.892;-123.962;2023-12-22T11:38:29;101254.10;;;9.70;100.00
51067;BME280;37112;45.892;-123.962;2023-12-22T11:41:07;101249.80;;;9.71;100.00
51067;BME280;37112;45.892;-123.962;2023-12-22T11:43:44;101242.45;;;9.72;100.00
51067;BME280;37112;45.892;-123.962;2023-12-22T11:46:21;101241.98;;;9.72;100.00
51067;BME280;37112;45.892;-123.962;2023-12-22T11:48:55;101241.09;;;9.71;100.00
51067;BME280;37112;45.892;-123.962;2023-12-22T11:51:34;101238.60;;;9.71;100.00
51067;BME280;37112;45.892;-123.962;2023-12-22T11:54:48;101236.98;;;9.72;100.00
51067;BME280;37112;45.892;-123.962;2023-12-22T11:57:31;101232.59;;;9.71;100.00
51067;BME280;37112;45.892;-123.962;2023-12-22T12:00:40;101229.75;;;9.71;100.00
51067;BME280;37112;45.892;-123.962;2023-12-22T12:03:13;101232.38;;;9.72;100.00
51067;BME280;37112;45.892;-123.962;2023-12-22T12:05:48;101236.61;;;9.72;100.00
51067;BME280;37112;45.892;-123.962;2023-12-22T12:08:32;101236.20;;;9.73;100.00
51067;BME280;37112;45.892;-123.962;2023-12-22T12:11:06;101233.98;;;9.75;100.00
51067;BME280;37112;45.892;-123.962;2023-12-22T12:13:31;101224.70;;;9.76;100.00
51067;BME280;37112;45.892;-123.962;2023-12-22T12:16:05;101221.75;;;9.78;100.00
51067;BME280;37112;45.892;-123.962;2023-12-22T12:18:41;101215.66;;;9.79;100.00
51067;BME280;37112;45.892;-123.962;2023-12-22T12:21:15;101206.05;;;9.81;100.00
51067;BME280;37112;45.892;-123.962;2023-12-22T12:23:51;101204.79;;;9.81;100.00
51067;BME280;37112;45.892;-123.962;2023-12-22T12:26:25;101206.39;;;9.81;100.00
51067;BME280;37112;45.892;-123.962;2023-12-22T12:28:48;101201.23;;;9.81;100.00
51067;BME280;37112;45.892;-123.962;2023-12-22T12:31:11;101190.90;;;9.82;100.00
51067;BME280;37112;45.892;-123.962;2023-12-22T12:33:45;101184.30;;;9.82;100.00
51067;BME280;37112;45.892;-123.962;2023-12-22T12:36:19;101186.22;;;9.83;100.00
51067;BME280;37112;45.892;-123.962;2023-12-22T12:38:58;101178.59;;;9.83;100.00
51067;BME280;37112;45.892;-123.962;2023-12-22T12:41:27;101176.27;;;9.83;100.00
51067;BME280;37112;45.892;-123.962;2023-12-22T12:44:06;101176.29;;;9.83;100.00
51067;BME280;37112;45.892;-123.962;2023-12-22T12:46:41;101186.92;;;9.83;100.00
51067;BME280;37112;45.892;-123.962;2023-12-22T12:49:16;101199.51;;;9.83;100.00